sensor_id;sensor_type;location;lat;lon;timestamp;P1;durP1;ratioP1;P2;durP2;ratioP2
13475;SDS011;6810;63.824;20.288;2024-02-23T00:01:56;0.93;;;0.30;;
13475;SDS011;6810;63.824;20.288;2024-02-23T00:04:43;0.40;;;0.40;;
13475;SDS011;6810;63.824;20.288;2024-02-23T00:07:30;0.20;;;0.20;;
13475;SDS011;6810;63.824;20.288;2024-02-23T00:10:17;0.40;;;0.40;;
13475;SDS011;6810;63.824;20.288;2024-02-23T00:13:03;1.27;;;0.63;;
13475;SDS011;6810;63.824;20.288;2024-02-23T00:15:50;2.67;;;0.80;;
13475;SDS011;6810;63.824;20.288;2024-02-23T00:18:37;1.83;;;1.63;;
13475;SDS011;6810;63.824;20.288;2024-02-23T00:21:24;2.43;;;1.33;;
13475;SDS011;6810;63.824;20.288;2024-02-23T00:24:11;2.20;;;1.40;;
13475;SDS011;6810;63.824;20.288;2024-02-23T00:26:58;1.87;;;1.10;;
13475;SDS011;6810;63.824;20.288;2024-02-23T00:29:45;1.57;;;1.03;;
13475;SDS011;6810;63.824;20.288;2024-02-23T00:32:32;1.73;;;1.07;;
13475;SDS011;6810;63.824;20.288;2024-02-23T00:35:19;1.03;;;0.90;;
13475;SDS011;6810;63.824;20.288;2024-02-23T00:38:06;0.80;;;0.80;;
13475;SDS011;6810;63.824;20.288;2024-02-23T00:40:53;0.53;;;0.53;;
13475;SDS011;6810;63.824;20.288;2024-02-23T00:43:40;1.00;;;0.90;;
13475;SDS011;6810;63.824;20.288;2024-02-23T00:46:27;0.67;;;0.60;;
13475;SDS011;6810;63.824;20.288;2024-02-23T00:49:14;0.60;;;0.60;;
13475;SDS011;6810;63.824;20.288;2024-02-23T00:52:01;0.50;;;0.50;;
13475;SDS011;6810;63.824;20.288;2024-02-23T00:54:48;1.00;;;0.70;;
13475;SDS011;6810;63.824;20.288;2024-02-23T00:57:35;0.70;;;0.70;;
13475;SDS011;6810;63.824;20.288;2024-02-23T01:00:22;0.80;;;0.57;;
13475;SDS011;6810;63.824;20.288;2024-02-23T01:02:50;0.60;;;0.57;;
13475;SDS011;6810;63.824;20.288;2024-02-23T01:05:17;0.90;;;0.67;;
13475;SDS011;6810;63.824;20.288;2024-02-23T01:07:44;0.40;;;0.40;;
13475;SDS011;6810;63.824;20.288;2024-02-23T01:10:11;0.73;;;0.60;;
13475;SDS011;6810;63.824;20.288;2024-02-23T01:12:38;0.57;;;0.57;;
13475;SDS011;6810;63.824;20.288;2024-02-23T01:15:25;0.53;;;0.53;;
13475;SDS011;6810;63.824;20.288;2024-02-23T01:18:15;0.60;;;0.60;;
13475;SDS011;6810;63.824;20.288;2024-02-23T01:21:02;0.70;;;0.60;;
13475;SDS011;6810;63.824;20.288;2024-02-23T01:23:49;0.70;;;0.60;;
13475;SDS011;6810;63.824;20.288;2024-02-23T01:26:36;0.70;;;0.60;;
13475;SDS011;6810;63.824;20.288;2024-02-23T01:29:24;0.80;;;0.60;;
13475;SDS011;6810;63.824;20.288;2024-02-23T01:32:12;0.70;;;0.70;;
13475;SDS011;6810;63.824;20.288;2024-02-23T01:34:59;0.90;;;0.60;;
13475;SDS011;6810;63.824;20.288;2024-02-23T01:37:46;0.67;;;0.50;;
13475;SDS011;6810;63.824;20.288;2024-02-23T01:40:33;0.50;;;0.50;;
13475;SDS011;6810;63.824;20.288;2024-02-23T01:43:20;0.77;;;0.77;;
13475;SDS011;6810;63.824;20.288;2024-02-23T01:46:07;0.60;;;0.50;;
13475;SDS011;6810;63.824;20.288;2024-02-23T01:48:53;0.70;;;0.60;;
13475;SDS011;6810;63.824;20.288;2024-02-23T01:51:41;0.57;;;0.57;;
13475;SDS011;6810;63.824;20.288;2024-02-23T01:54:27;1.60;;;0.63;;
13475;SDS011;6810;63.824;20.288;2024-02-23T01:57:16;0.40;;;0.40;;
13475;SDS011;6810;63.824;20.288;2024-02-23T02:00:16;0.60;;;0.50;;
13475;SDS011;6810;63.824;20.288;2024-02-23T02:02:53;1.30;;;0.50;;
13475;SDS011;6810;63.824;20.288;2024-02-23T02:05:21;0.77;;;0.60;;
13475;SDS011;6810;63.824;20.288;2024-02-23T02:08:08;1.10;;;0.67;;
13475;SDS011;6810;63.824;20.288;2024-02-23T02:10:57;0.40;;;0.40;;
13475;SDS011;6810;63.824;20.288;2024-02-23T02:13:44;0.97;;;0.83;;
13475;SDS011;6810;63.824;20.288;2024-02-23T02:16:31;0.60;;;0.60;;
13475;SDS011;6810;63.824;20.288;2024-02-23T02:19:18;1.50;;;0.73;;
13475;SDS011;6810;63.824;20.288;2024-02-23T02:22:05;1.40;;;0.77;;
13475;SDS011;6810;63.824;20.288;2024-02-23T02:24:52;1.53;;;0.70;;
13475;SDS011;6810;63.824;20.288;2024-02-23T02:27:39;1.07;;;0.80;;
13475;SDS011;6810;63.824;20.288;2024-02-23T02:30:26;0.87;;;0.50;;
13475;SDS011;6810;63.824;20.288;2024-02-23T02:33:13;1.20;;;0.73;;
13475;SDS011;6810;63.824;20.288;2024-02-23T02:36:00;0.90;;;0.70;;
13475;SDS011;6810;63.824;20.288;2024-02-23T02:38:47;1.57;;;1.00;;
13475;SDS011;6810;63.824;20.288;2024-02-23T02:41:37;0.90;;;0.60;;
13475;SDS011;6810;63.824;20.288;2024-02-23T02:44:23;0.80;;;0.80;;
13475;SDS011;6810;63.824;20.288;2024-02-23T02:47:10;0.63;;;0.60;;
13475;SDS011;6810;63.824;20.288;2024-02-23T02:49:58;0.80;;;0.70;;
13475;SDS011;6810;63.824;20.288;2024-02-23T02:52:45;1.57;;;0.60;;
13475;SDS011;6810;63.824;20.288;2024-02-23T02:55:32;1.40;;;0.77;;
13475;SDS011;6810;63.824;20.288;2024-02-23T02:58:19;0.77;;;0.70;;
13475;SDS011;6810;63.824;20.288;2024-02-23T03:01:06;1.33;;;0.90;;
13475;SDS011;6810;63.824;20.288;2024-02-23T03:03:53;1.33;;;1.07;;
13475;SDS011;6810;63.824;20.288;2024-02-23T03:06:40;0.60;;;0.60;;
13475;SDS011;6810;63.824;20.288;2024-02-23T03:09:27;1.80;;;0.77;;
13475;SDS011;6810;63.824;20.288;2024-02-23T03:12:14;0.80;;;0.77;;
13475;SDS011;6810;63.824;20.288;2024-02-23T03:15:01;0.90;;;0.60;;
13475;SDS011;6810;63.824;20.288;2024-02-23T03:17:47;1.10;;;0.70;;
13475;SDS011;6810;63.824;20.288;2024-02-23T03:20:34;0.50;;;0.50;;
13475;SDS011;6810;63.824;20.288;2024-02-23T03:23:22;1.30;;;0.90;;
13475;SDS011;6810;63.824;20.288;2024-02-23T03:26:09;0.83;;;0.80;;
13475;SDS011;6810;63.824;20.288;2024-02-23T03:28:56;0.70;;;0.70;;
13475;SDS011;6810;63.824;20.288;2024-02-23T03:31:42;0.90;;;0.70;;
13475;SDS011;6810;63.824;20.288;2024-02-23T03:34:29;1.10;;;0.70;;
13475;SDS011;6810;63.824;20.288;2024-02-23T03:37:16;1.37;;;0.70;;
13475;SDS011;6810;63.824;20.288;2024-02-23T03:40:04;1.27;;;0.97;;
13475;SDS011;6810;63.824;20.288;2024-02-23T03:42:52;0.97;;;0.87;;
13475;SDS011;6810;63.824;20.288;2024-02-23T03:45:38;1.10;;;0.70;;
13475;SDS011;6810;63.824;20.288;2024-02-23T03:48:25;1.20;;;0.80;;
13475;SDS011;6810;63.824;20.288;2024-02-23T03:51:13;0.67;;;0.60;;
13475;SDS011;6810;63.824;20.288;2024-02-23T03:54:00;0.60;;;0.60;;
13475;SDS011;6810;63.824;20.288;2024-02-23T03:56:47;0.80;;;0.63;;
13475;SDS011;6810;63.824;20.288;2024-02-23T03:59:35;1.03;;;0.80;;
13475;SDS011;6810;63.824;20.288;2024-02-23T04:02:22;0.93;;;0.90;;
13475;SDS011;6810;63.824;20.288;2024-02-23T04:05:09;1.07;;;0.90;;
13475;SDS011;6810;63.824;20.288;2024-02-23T04:07:56;1.13;;;0.87;;
13475;SDS011;6810;63.824;20.288;2024-02-23T04:10:43;1.10;;;1.00;;
13475;SDS011;6810;63.824;20.288;2024-02-23T04:13:30;1.10;;;1.00;;
13475;SDS011;6810;63.824;20.288;2024-02-23T04:16:21;0.93;;;0.83;;
13475;SDS011;6810;63.824;20.288;2024-02-23T04:19:09;2.17;;;1.20;;
13475;SDS011;6810;63.824;20.288;2024-02-23T04:21:56;1.73;;;1.13;;
13475;SDS011;6810;63.824;20.288;2024-02-23T04:24:43;1.47;;;0.90;;
13475;SDS011;6810;63.824;20.288;2024-02-23T04:27:30;1.00;;;0.90;;
13475;SDS011;6810;63.824;20.288;2024-02-23T04:30:17;1.00;;;0.80;;
13475;SDS011;6810;63.824;20.288;2024-02-23T04:33:04;1.27;;;1.17;;
13475;SDS011;6810;63.824;20.288;2024-02-23T04:35:51;1.23;;;0.93;;
13475;SDS011;6810;63.824;20.288;2024-02-23T04:38:37;1.53;;;0.97;;
13475;SDS011;6810;63.824;20.288;2024-02-23T04:41:24;1.20;;;0.97;;
13475;SDS011;6810;63.824;20.288;2024-02-23T04:44:11;1.10;;;1.00;;
13475;SDS011;6810;63.824;20.288;2024-02-23T04:46:58;1.53;;;0.90;;
13475;SDS011;6810;63.824;20.288;2024-02-23T04:49:45;1.10;;;0.80;;
13475;SDS011;6810;63.824;20.288;2024-02-23T04:52:32;1.00;;;0.90;;
13475;SDS011;6810;63.824;20.288;2024-02-23T04:55:19;1.10;;;1.00;;
13475;SDS011;6810;63.824;20.288;2024-02-23T04:58:06;1.13;;;1.03;;
13475;SDS011;6810;63.824;20.288;2024-02-23T05:00:53;1.10;;;1.00;;
13475;SDS011;6810;63.824;20.288;2024-02-23T05:03:40;1.73;;;1.10;;
13475;SDS011;6810;63.824;20.288;2024-02-23T05:06:33;1.03;;;0.90;;
13475;SDS011;6810;63.824;20.288;2024-02-23T05:09:20;1.03;;;0.80;;
13475;SDS011;6810;63.824;20.288;2024-02-23T05:12:07;1.87;;;1.00;;
13475;SDS011;6810;63.824;20.288;2024-02-23T05:14:55;1.10;;;1.00;;
13475;SDS011;6810;63.824;20.288;2024-02-23T05:17:42;0.93;;;0.80;;
13475;SDS011;6810;63.824;20.288;2024-02-23T05:20:29;1.27;;;1.10;;
13475;SDS011;6810;63.824;20.288;2024-02-23T05:23:19;1.30;;;1.10;;
13475;SDS011;6810;63.824;20.288;2024-02-23T05:26:06;2.23;;;1.00;;
13475;SDS011;6810;63.824;20.288;2024-02-23T05:28:54;1.23;;;0.97;;
13475;SDS011;6810;63.824;20.288;2024-02-23T05:31:47;1.20;;;0.97;;
13475;SDS011;6810;63.824;20.288;2024-02-23T05:34:35;2.23;;;1.20;;
13475;SDS011;6810;63.824;20.288;2024-02-23T05:37:22;1.20;;;0.93;;
13475;SDS011;6810;63.824;20.288;2024-02-23T05:40:09;1.47;;;1.03;;
13475;SDS011;6810;63.824;20.288;2024-02-23T05:42:56;1.30;;;0.97;;
13475;SDS011;6810;63.824;20.288;2024-02-23T05:45:43;1.73;;;1.10;;
13475;SDS011;6810;63.824;20.288;2024-02-23T05:48:30;1.80;;;1.07;;
13475;SDS011;6810;63.824;20.288;2024-02-23T05:51:17;2.10;;;1.20;;
13475;SDS011;6810;63.824;20.288;2024-02-23T05:54:04;1.30;;;1.20;;
13475;SDS011;6810;63.824;20.288;2024-02-23T05:56:51;1.20;;;1.10;;
13475;SDS011;6810;63.824;20.288;2024-02-23T05:59:38;1.07;;;0.97;;
13475;SDS011;6810;63.824;20.288;2024-02-23T06:02:25;1.03;;;0.93;;
13475;SDS011;6810;63.824;20.288;2024-02-23T06:05:12;1.40;;;1.10;;
13475;SDS011;6810;63.824;20.288;2024-02-23T06:07:59;1.70;;;1.30;;
13475;SDS011;6810;63.824;20.288;2024-02-23T06:10:46;2.10;;;1.27;;
13475;SDS011;6810;63.824;20.288;2024-02-23T06:13:33;1.50;;;1.40;;
13475;SDS011;6810;63.824;20.288;2024-02-23T06:16:20;1.80;;;1.40;;
13475;SDS011;6810;63.824;20.288;2024-02-23T06:19:08;1.40;;;1.30;;
13475;SDS011;6810;63.824;20.288;2024-02-23T06:21:55;1.23;;;1.10;;
13475;SDS011;6810;63.824;20.288;2024-02-23T06:24:42;1.17;;;1.07;;
13475;SDS011;6810;63.824;20.288;2024-02-23T06:27:29;1.67;;;1.20;;
13475;SDS011;6810;63.824;20.288;2024-02-23T06:30:16;1.30;;;1.10;;
13475;SDS011;6810;63.824;20.288;2024-02-23T06:33:02;2.77;;;1.60;;
13475;SDS011;6810;63.824;20.288;2024-02-23T06:35:50;1.97;;;1.20;;
13475;SDS011;6810;63.824;20.288;2024-02-23T06:38:37;2.17;;;1.43;;
13475;SDS011;6810;63.824;20.288;2024-02-23T06:41:24;1.47;;;1.30;;
13475;SDS011;6810;63.824;20.288;2024-02-23T06:44:11;1.93;;;1.50;;
13475;SDS011;6810;63.824;20.288;2024-02-23T06:46:58;1.90;;;1.60;;
13475;SDS011;6810;63.824;20.288;2024-02-23T06:49:46;2.57;;;1.37;;
13475;SDS011;6810;63.824;20.288;2024-02-23T06:52:33;2.83;;;1.40;;
13475;SDS011;6810;63.824;20.288;2024-02-23T06:55:20;1.90;;;1.20;;
13475;SDS011;6810;63.824;20.288;2024-02-23T06:58:07;2.20;;;1.87;;
13475;SDS011;6810;63.824;20.288;2024-02-23T07:00:53;2.30;;;1.73;;
13475;SDS011;6810;63.824;20.288;2024-02-23T07:03:29;1.80;;;1.60;;
13475;SDS011;6810;63.824;20.288;2024-02-23T07:05:57;2.50;;;1.60;;
13475;SDS011;6810;63.824;20.288;2024-02-23T07:08:24;2.20;;;1.67;;
13475;SDS011;6810;63.824;20.288;2024-02-23T07:11:11;2.40;;;1.57;;
13475;SDS011;6810;63.824;20.288;2024-02-23T07:13:59;3.07;;;2.10;;
13475;SDS011;6810;63.824;20.288;2024-02-23T07:16:46;2.53;;;1.90;;
13475;SDS011;6810;63.824;20.288;2024-02-23T07:19:33;2.50;;;1.90;;
13475;SDS011;6810;63.824;20.288;2024-02-23T07:22:19;2.77;;;2.00;;
13475;SDS011;6810;63.824;20.288;2024-02-23T07:25:06;3.03;;;2.00;;
13475;SDS011;6810;63.824;20.288;2024-02-23T07:27:54;2.87;;;1.90;;
13475;SDS011;6810;63.824;20.288;2024-02-23T07:30:40;3.27;;;2.00;;
13475;SDS011;6810;63.824;20.288;2024-02-23T07:33:27;3.13;;;2.30;;
13475;SDS011;6810;63.824;20.288;2024-02-23T07:36:14;2.57;;;2.10;;
13475;SDS011;6810;63.824;20.288;2024-02-23T07:39:02;2.53;;;1.87;;
13475;SDS011;6810;63.824;20.288;2024-02-23T07:41:48;3.00;;;2.10;;
13475;SDS011;6810;63.824;20.288;2024-02-23T07:44:35;2.33;;;1.67;;
13475;SDS011;6810;63.824;20.288;2024-02-23T07:47:22;2.87;;;2.13;;
13475;SDS011;6810;63.824;20.288;2024-02-23T07:50:10;2.30;;;1.87;;
13475;SDS011;6810;63.824;20.288;2024-02-23T07:52:57;2.97;;;2.10;;
13475;SDS011;6810;63.824;20.288;2024-02-23T07:55:44;2.83;;;1.90;;
13475;SDS011;6810;63.824;20.288;2024-02-23T07:58:31;2.63;;;2.03;;
13475;SDS011;6810;63.824;20.288;2024-02-23T08:01:18;2.07;;;1.70;;
13475;SDS011;6810;63.824;20.288;2024-02-23T08:04:04;3.17;;;2.40;;
13475;SDS011;6810;63.824;20.288;2024-02-23T08:06:51;4.17;;;2.40;;
13475;SDS011;6810;63.824;20.288;2024-02-23T08:09:38;2.97;;;2.00;;
13475;SDS011;6810;63.824;20.288;2024-02-23T08:12:06;3.63;;;2.43;;
13475;SDS011;6810;63.824;20.288;2024-02-23T08:14:33;4.13;;;2.60;;
13475;SDS011;6810;63.824;20.288;2024-02-23T08:17:20;3.77;;;2.17;;
13475;SDS011;6810;63.824;20.288;2024-02-23T08:20:07;2.50;;;2.00;;
13475;SDS011;6810;63.824;20.288;2024-02-23T08:22:54;2.83;;;2.30;;
13475;SDS011;6810;63.824;20.288;2024-02-23T08:25:41;3.17;;;2.30;;
13475;SDS011;6810;63.824;20.288;2024-02-23T08:28:28;3.33;;;2.33;;
13475;SDS011;6810;63.824;20.288;2024-02-23T08:31:15;2.93;;;1.97;;
13475;SDS011;6810;63.824;20.288;2024-02-23T08:34:07;3.03;;;2.10;;
13475;SDS011;6810;63.824;20.288;2024-02-23T08:36:54;3.07;;;2.47;;
13475;SDS011;6810;63.824;20.288;2024-02-23T11:06:09;5.77;;;3.00;;
13475;SDS011;6810;63.824;20.288;2024-02-23T11:09:04;5.83;;;3.07;;
13475;SDS011;6810;63.824;20.288;2024-02-23T11:12:03;4.40;;;3.20;;
13475;SDS011;6810;63.824;20.288;2024-02-23T11:14:50;4.53;;;2.90;;
13475;SDS011;6810;63.824;20.288;2024-02-23T11:17:37;4.23;;;3.37;;
13475;SDS011;6810;63.824;20.288;2024-02-23T11:20:25;4.13;;;2.90;;
13475;SDS011;6810;63.824;20.288;2024-02-23T11:23:21;3.17;;;2.43;;
13475;SDS011;6810;63.824;20.288;2024-02-23T11:26:11;4.83;;;3.13;;
13475;SDS011;6810;63.824;20.288;2024-02-23T11:28:59;5.73;;;2.90;;
13475;SDS011;6810;63.824;20.288;2024-02-23T11:31:56;3.67;;;2.77;;
13475;SDS011;6810;63.824;20.288;2024-02-23T11:34:55;5.17;;;3.20;;
13475;SDS011;6810;63.824;20.288;2024-02-23T11:37:53;4.73;;;2.80;;
13475;SDS011;6810;63.824;20.288;2024-02-23T11:40:44;3.70;;;2.80;;
13475;SDS011;6810;63.824;20.288;2024-02-23T11:43:33;3.63;;;2.70;;
13475;SDS011;6810;63.824;20.288;2024-02-23T11:46:33;4.03;;;2.77;;
13475;SDS011;6810;63.824;20.288;2024-02-23T11:49:20;5.23;;;2.93;;
13475;SDS011;6810;63.824;20.288;2024-02-23T11:52:14;3.97;;;2.93;;
13475;SDS011;6810;63.824;20.288;2024-02-23T11:55:01;4.70;;;3.10;;
13475;SDS011;6810;63.824;20.288;2024-02-23T11:57:47;3.63;;;2.83;;
13475;SDS011;6810;63.824;20.288;2024-02-23T12:00:43;4.53;;;3.00;;
13475;SDS011;6810;63.824;20.288;2024-02-23T12:03:31;4.73;;;3.10;;
13475;SDS011;6810;63.824;20.288;2024-02-23T12:06:18;5.07;;;3.03;;
13475;SDS011;6810;63.824;20.288;2024-02-23T12:09:05;4.60;;;3.33;;
13475;SDS011;6810;63.824;20.288;2024-02-23T12:11:52;4.33;;;2.70;;
13475;SDS011;6810;63.824;20.288;2024-02-23T12:14:39;3.50;;;2.90;;
13475;SDS011;6810;63.824;20.288;2024-02-23T12:17:26;3.80;;;2.70;;
13475;SDS011;6810;63.824;20.288;2024-02-23T12:20:14;5.53;;;3.50;;
13475;SDS011;6810;63.824;20.288;2024-02-23T12:23:01;4.57;;;3.20;;
13475;SDS011;6810;63.824;20.288;2024-02-23T12:25:57;3.50;;;2.73;;
13475;SDS011;6810;63.824;20.288;2024-02-23T12:28:44;4.77;;;3.00;;
13475;SDS011;6810;63.824;20.288;2024-02-23T12:31:32;4.27;;;2.57;;
13475;SDS011;6810;63.824;20.288;2024-02-23T12:34:19;6.07;;;2.73;;
13475;SDS011;6810;63.824;20.288;2024-02-23T12:37:06;4.03;;;2.63;;
13475;SDS011;6810;63.824;20.288;2024-02-23T12:39:54;3.90;;;2.60;;
13475;SDS011;6810;63.824;20.288;2024-02-23T12:42:41;3.33;;;2.40;;
13475;SDS011;6810;63.824;20.288;2024-02-23T12:45:28;3.37;;;2.23;;
13475;SDS011;6810;63.824;20.288;2024-02-23T12:48:15;3.40;;;2.20;;
13475;SDS011;6810;63.824;20.288;2024-02-23T12:51:03;3.63;;;2.20;;
13475;SDS011;6810;63.824;20.288;2024-02-23T12:53:50;2.77;;;1.93;;
13475;SDS011;6810;63.824;20.288;2024-02-23T12:56:37;2.83;;;1.83;;
13475;SDS011;6810;63.824;20.288;2024-02-23T12:59:24;2.73;;;1.80;;
13475;SDS011;6810;63.824;20.288;2024-02-23T13:02:11;2.13;;;1.50;;
13475;SDS011;6810;63.824;20.288;2024-02-23T13:04:58;1.87;;;1.60;;
13475;SDS011;6810;63.824;20.288;2024-02-23T13:07:45;2.50;;;1.67;;
13475;SDS011;6810;63.824;20.288;2024-02-23T13:10:34;2.40;;;1.50;;
13475;SDS011;6810;63.824;20.288;2024-02-23T13:13:21;1.50;;;1.30;;
13475;SDS011;6810;63.824;20.288;2024-02-23T13:16:09;1.53;;;1.43;;
13475;SDS011;6810;63.824;20.288;2024-02-23T13:18:56;1.67;;;1.23;;
13475;SDS011;6810;63.824;20.288;2024-02-23T13:21:43;1.47;;;1.27;;
13475;SDS011;6810;63.824;20.288;2024-02-23T13:24:30;1.40;;;1.30;;
13475;SDS011;6810;63.824;20.288;2024-02-23T13:27:17;1.30;;;1.20;;
13475;SDS011;6810;63.824;20.288;2024-02-23T13:30:04;1.60;;;1.20;;
13475;SDS011;6810;63.824;20.288;2024-02-23T13:32:52;1.30;;;0.93;;
13475;SDS011;6810;63.824;20.288;2024-02-23T13:35:39;1.43;;;1.10;;
13475;SDS011;6810;63.824;20.288;2024-02-23T13:38:26;1.50;;;1.10;;
13475;SDS011;6810;63.824;20.288;2024-02-23T13:41:13;2.43;;;1.20;;
13475;SDS011;6810;63.824;20.288;2024-02-23T13:44:00;1.17;;;1.03;;
13475;SDS011;6810;63.824;20.288;2024-02-23T13:46:47;1.00;;;0.90;;
13475;SDS011;6810;63.824;20.288;2024-02-23T13:49:34;1.20;;;0.90;;
13475;SDS011;6810;63.824;20.288;2024-02-23T13:52:21;1.20;;;1.03;;
13475;SDS011;6810;63.824;20.288;2024-02-23T13:55:08;1.33;;;1.10;;
13475;SDS011;6810;63.824;20.288;2024-02-23T13:57:55;1.07;;;0.93;;
13475;SDS011;6810;63.824;20.288;2024-02-23T14:00:42;1.20;;;1.10;;
13475;SDS011;6810;63.824;20.288;2024-02-23T14:03:29;1.00;;;0.90;;
13475;SDS011;6810;63.824;20.288;2024-02-23T14:06:16;1.60;;;1.20;;
13475;SDS011;6810;63.824;20.288;2024-02-23T14:09:03;1.93;;;1.10;;
13475;SDS011;6810;63.824;20.288;2024-02-23T14:11:49;2.23;;;1.10;;
13475;SDS011;6810;63.824;20.288;2024-02-23T14:14:37;1.83;;;1.17;;
13475;SDS011;6810;63.824;20.288;2024-02-23T14:17:24;0.93;;;0.93;;
13475;SDS011;6810;63.824;20.288;2024-02-23T14:20:11;1.03;;;0.90;;
13475;SDS011;6810;63.824;20.288;2024-02-23T14:22:58;1.97;;;1.20;;
13475;SDS011;6810;63.824;20.288;2024-02-23T14:25:45;2.87;;;1.30;;
13475;SDS011;6810;63.824;20.288;2024-02-23T14:28:32;1.00;;;0.90;;
13475;SDS011;6810;63.824;20.288;2024-02-23T14:31:27;1.63;;;1.40;;
13475;SDS011;6810;63.824;20.288;2024-02-23T14:33:54;1.63;;;0.90;;
13475;SDS011;6810;63.824;20.288;2024-02-23T14:36:41;1.27;;;1.00;;
13475;SDS011;6810;63.824;20.288;2024-02-23T14:39:28;1.73;;;1.10;;
13475;SDS011;6810;63.824;20.288;2024-02-23T14:42:15;2.13;;;0.90;;
13475;SDS011;6810;63.824;20.288;2024-02-23T14:45:02;1.43;;;1.20;;
13475;SDS011;6810;63.824;20.288;2024-02-23T14:47:50;1.20;;;0.93;;
13475;SDS011;6810;63.824;20.288;2024-02-23T14:50:37;1.33;;;1.20;;
13475;SDS011;6810;63.824;20.288;2024-02-23T14:53:24;0.83;;;0.77;;
13475;SDS011;6810;63.824;20.288;2024-02-23T14:56:11;1.93;;;1.27;;
13475;SDS011;6810;63.824;20.288;2024-02-23T14:58:58;0.97;;;0.90;;
13475;SDS011;6810;63.824;20.288;2024-02-23T15:01:44;1.17;;;1.00;;
13475;SDS011;6810;63.824;20.288;2024-02-23T15:04:31;1.00;;;0.93;;
13475;SDS011;6810;63.824;20.288;2024-02-23T15:07:18;1.47;;;0.93;;
13475;SDS011;6810;63.824;20.288;2024-02-23T15:10:05;1.20;;;1.10;;
13475;SDS011;6810;63.824;20.288;2024-02-23T15:12:52;1.30;;;1.20;;
13475;SDS011;6810;63.824;20.288;2024-02-23T15:15:39;1.33;;;1.10;;
13475;SDS011;6810;63.824;20.288;2024-02-23T15:18:26;0.80;;;0.80;;
13475;SDS011;6810;63.824;20.288;2024-02-23T15:21:13;1.17;;;1.07;;
13475;SDS011;6810;63.824;20.288;2024-02-23T15:24:00;1.83;;;1.23;;
13475;SDS011;6810;63.824;20.288;2024-02-23T15:26:47;1.37;;;1.20;;
13475;SDS011;6810;63.824;20.288;2024-02-23T15:29:34;1.40;;;1.23;;
13475;SDS011;6810;63.824;20.288;2024-02-23T15:32:01;1.83;;;1.50;;
13475;SDS011;6810;63.824;20.288;2024-02-23T15:34:28;1.20;;;1.10;;
13475;SDS011;6810;63.824;20.288;2024-02-23T15:37:15;1.00;;;0.83;;
13475;SDS011;6810;63.824;20.288;2024-02-23T15:40:02;1.47;;;1.20;;
13475;SDS011;6810;63.824;20.288;2024-02-23T15:42:49;0.77;;;0.77;;
13475;SDS011;6810;63.824;20.288;2024-02-23T15:45:36;0.90;;;0.80;;
13475;SDS011;6810;63.824;20.288;2024-02-23T15:48:23;1.40;;;1.00;;
13475;SDS011;6810;63.824;20.288;2024-02-23T15:51:10;0.90;;;0.70;;
13475;SDS011;6810;63.824;20.288;2024-02-23T15:54:15;1.20;;;1.10;;
13475;SDS011;6810;63.824;20.288;2024-02-23T15:57:02;1.30;;;1.10;;
13475;SDS011;6810;63.824;20.288;2024-02-23T15:59:49;1.20;;;1.07;;
13475;SDS011;6810;63.824;20.288;2024-02-23T16:02:36;0.97;;;0.90;;
13475;SDS011;6810;63.824;20.288;2024-02-23T16:05:23;1.30;;;1.00;;
13475;SDS011;6810;63.824;20.288;2024-02-23T16:08:11;1.07;;;0.90;;
13475;SDS011;6810;63.824;20.288;2024-02-23T16:10:59;1.43;;;0.90;;
13475;SDS011;6810;63.824;20.288;2024-02-23T16:13:46;1.13;;;1.03;;
13475;SDS011;6810;63.824;20.288;2024-02-23T16:16:33;0.83;;;0.80;;
13475;SDS011;6810;63.824;20.288;2024-02-23T16:19:20;1.43;;;1.07;;
13475;SDS011;6810;63.824;20.288;2024-02-23T16:22:06;1.17;;;1.07;;
13475;SDS011;6810;63.824;20.288;2024-02-23T16:24:53;1.00;;;0.90;;
13475;SDS011;6810;63.824;20.288;2024-02-23T16:27:40;1.40;;;1.10;;
13475;SDS011;6810;63.824;20.288;2024-02-23T16:30:27;1.27;;;1.00;;
13475;SDS011;6810;63.824;20.288;2024-02-23T16:33:14;1.20;;;1.07;;
13475;SDS011;6810;63.824;20.288;2024-02-23T16:36:01;1.87;;;1.10;;
13475;SDS011;6810;63.824;20.288;2024-02-23T16:38:48;1.40;;;1.30;;
13475;SDS011;6810;63.824;20.288;2024-02-23T16:41:35;1.50;;;1.40;;
13475;SDS011;6810;63.824;20.288;2024-02-23T16:44:22;1.77;;;1.60;;
13475;SDS011;6810;63.824;20.288;2024-02-23T16:47:10;2.23;;;1.70;;
13475;SDS011;6810;63.824;20.288;2024-02-23T16:49:57;1.53;;;1.40;;
13475;SDS011;6810;63.824;20.288;2024-02-23T16:52:44;3.07;;;1.90;;
13475;SDS011;6810;63.824;20.288;2024-02-23T16:55:31;1.97;;;1.77;;
13475;SDS011;6810;63.824;20.288;2024-02-23T16:58:18;3.30;;;2.10;;
13475;SDS011;6810;63.824;20.288;2024-02-23T17:01:05;3.77;;;2.10;;
13475;SDS011;6810;63.824;20.288;2024-02-23T17:03:52;4.47;;;2.60;;
13475;SDS011;6810;63.824;20.288;2024-02-23T17:06:39;4.53;;;2.70;;
13475;SDS011;6810;63.824;20.288;2024-02-23T17:09:26;4.40;;;2.80;;
13475;SDS011;6810;63.824;20.288;2024-02-23T17:12:14;4.03;;;3.00;;
13475;SDS011;6810;63.824;20.288;2024-02-23T17:15:01;4.00;;;3.10;;
13475;SDS011;6810;63.824;20.288;2024-02-23T17:17:48;6.13;;;3.30;;
13475;SDS011;6810;63.824;20.288;2024-02-23T17:20:35;4.47;;;3.10;;
13475;SDS011;6810;63.824;20.288;2024-02-23T17:23:25;6.97;;;4.20;;
13475;SDS011;6810;63.824;20.288;2024-02-23T17:26:12;6.33;;;3.57;;
13475;SDS011;6810;63.824;20.288;2024-02-23T17:28:59;7.23;;;4.03;;
13475;SDS011;6810;63.824;20.288;2024-02-23T17:31:46;6.77;;;3.77;;
13475;SDS011;6810;63.824;20.288;2024-02-23T17:34:33;7.73;;;4.10;;
13475;SDS011;6810;63.824;20.288;2024-02-23T17:37:20;8.80;;;4.53;;
13475;SDS011;6810;63.824;20.288;2024-02-23T17:40:07;9.97;;;4.97;;
13475;SDS011;6810;63.824;20.288;2024-02-23T17:42:54;7.77;;;4.77;;
13475;SDS011;6810;63.824;20.288;2024-02-23T17:45:41;10.93;;;5.37;;
13475;SDS011;6810;63.824;20.288;2024-02-23T17:48:28;8.57;;;5.30;;
13475;SDS011;6810;63.824;20.288;2024-02-23T17:51:15;9.67;;;5.20;;
13475;SDS011;6810;63.824;20.288;2024-02-23T17:53:42;8.97;;;4.80;;
13475;SDS011;6810;63.824;20.288;2024-02-23T17:56:29;8.97;;;5.47;;
13475;SDS011;6810;63.824;20.288;2024-02-23T17:58:58;9.40;;;5.60;;
13475;SDS011;6810;63.824;20.288;2024-02-23T18:01:45;9.17;;;5.60;;
13475;SDS011;6810;63.824;20.288;2024-02-23T18:04:32;12.10;;;5.47;;
13475;SDS011;6810;63.824;20.288;2024-02-23T18:07:19;9.70;;;5.83;;
13475;SDS011;6810;63.824;20.288;2024-02-23T18:10:06;9.10;;;5.97;;
13475;SDS011;6810;63.824;20.288;2024-02-23T18:12:53;10.57;;;5.50;;
13475;SDS011;6810;63.824;20.288;2024-02-23T18:15:40;11.60;;;5.43;;
13475;SDS011;6810;63.824;20.288;2024-02-23T18:18:27;9.63;;;5.97;;
13475;SDS011;6810;63.824;20.288;2024-02-23T18:21:14;10.07;;;5.80;;
13475;SDS011;6810;63.824;20.288;2024-02-23T18:24:01;10.97;;;6.00;;
13475;SDS011;6810;63.824;20.288;2024-02-23T18:26:48;12.47;;;6.33;;
13475;SDS011;6810;63.824;20.288;2024-02-23T18:29:35;10.80;;;5.93;;
13475;SDS011;6810;63.824;20.288;2024-02-23T18:32:22;10.20;;;5.80;;
13475;SDS011;6810;63.824;20.288;2024-02-23T18:35:09;11.03;;;6.27;;
13475;SDS011;6810;63.824;20.288;2024-02-23T18:37:56;10.70;;;6.30;;
13475;SDS011;6810;63.824;20.288;2024-02-23T18:40:42;10.80;;;6.00;;
13475;SDS011;6810;63.824;20.288;2024-02-23T18:43:29;9.70;;;6.03;;
13475;SDS011;6810;63.824;20.288;2024-02-23T18:46:16;13.77;;;6.17;;
13475;SDS011;6810;63.824;20.288;2024-02-23T18:49:03;10.80;;;5.70;;
13475;SDS011;6810;63.824;20.288;2024-02-23T18:51:50;12.10;;;6.10;;
13475;SDS011;6810;63.824;20.288;2024-02-23T18:54:37;12.70;;;6.90;;
13475;SDS011;6810;63.824;20.288;2024-02-23T18:57:24;9.83;;;6.13;;
13475;SDS011;6810;63.824;20.288;2024-02-23T19:00:11;12.80;;;7.23;;
13475;SDS011;6810;63.824;20.288;2024-02-23T19:02:58;11.83;;;6.47;;
13475;SDS011;6810;63.824;20.288;2024-02-23T19:05:46;12.63;;;6.47;;
13475;SDS011;6810;63.824;20.288;2024-02-23T19:08:33;12.33;;;6.37;;
13475;SDS011;6810;63.824;20.288;2024-02-23T19:11:20;12.63;;;7.00;;